createdAt,value
2019-03-23T00:02:09.029Z,27.63
2019-03-23T00:04:37.032Z,29.77
2019-03-23T00:07:04.955Z,27.17
2019-03-23T00:09:32.874Z,29.07
2019-03-23T00:12:00.765Z,28.60
2019-03-23T00:14:28.846Z,27.47
2019-03-23T00:16:56.798Z,28.23
2019-03-23T00:19:25.081Z,28.03
2019-03-23T00:21:53.004Z,29.87
2019-03-23T00:24:20.950Z,28.50
2019-03-23T00:26:48.924Z,30.37
2019-03-23T00:29:16.847Z,30.80
2019-03-23T00:31:44.745Z,28.13
2019-03-23T00:34:12.668Z,28.93
2019-03-23T00:36:41.747Z,28.20
2019-03-23T00:39:09.999Z,32.27
2019-03-23T00:41:37.908Z,33.53
2019-03-23T00:44:07.490Z,35.43
2019-03-23T00:46:35.533Z,33.97
2019-03-23T00:49:03.455Z,37.37
2019-03-23T00:51:31.337Z,37.43
2019-03-23T00:53:59.314Z,38.00
2019-03-23T00:56:27.280Z,38.23
2019-03-23T00:58:55.285Z,41.33
2019-03-23T01:01:23.259Z,40.63
2019-03-23T01:03:51.259Z,42.50
2019-03-23T01:06:19.190Z,44.13
2019-03-23T01:08:47.124Z,43.30
2019-03-23T01:11:15.059Z,44.73
2019-03-23T01:13:42.975Z,42.90
2019-03-23T01:16:10.911Z,44.43
2019-03-23T01:18:40.071Z,45.10
2019-03-23T01:21:07.958Z,44.13
2019-03-23T01:23:35.858Z,44.77
2019-03-23T01:26:04.017Z,45.13
2019-03-23T01:28:32.004Z,47.00
2019-03-23T01:31:00.049Z,46.80
2019-03-23T01:33:27.994Z,47.80
2019-03-23T01:35:56.023Z,47.13
2019-03-23T01:38:23.960Z,46.27
2019-03-23T01:40:51.903Z,46.10
2019-03-23T01:43:19.821Z,45.47
2019-03-23T01:45:47.806Z,46.50
2019-03-23T01:48:16.020Z,46.60
2019-03-23T01:50:44.013Z,51.60
2019-03-23T01:53:12.001Z,53.33
2019-03-23T01:55:39.988Z,52.83
2019-03-23T01:58:07.878Z,58.10
2019-03-23T02:00:35.846Z,56.23
2019-03-23T02:03:03.872Z,55.53
2019-03-23T02:05:31.816Z,58.53
2019-03-23T02:07:59.775Z,53.67
2019-03-23T02:10:27.715Z,57.87
2019-03-23T02:12:55.596Z,58.33
2019-03-23T02:15:23.554Z,53.87
2019-03-23T02:17:51.453Z,56.63
2019-03-23T02:20:19.357Z,57.93
2019-03-23T02:22:47.280Z,55.93
2019-03-23T02:25:15.181Z,55.37
2019-03-23T02:27:43.121Z,56.43
2019-03-23T02:30:11.531Z,55.17
2019-03-23T02:32:39.534Z,58.17
2019-03-23T02:35:07.565Z,57.43
2019-03-23T02:37:35.473Z,55.60
2019-03-23T02:40:03.728Z,57.90
2019-03-23T02:42:31.698Z,56.57
2019-03-23T02:44:59.527Z,58.83
2019-03-23T02:47:27.485Z,56.97
2019-03-23T02:49:55.373Z,57.13
2019-03-23T02:52:23.336Z,57.47
2019-03-23T02:54:51.286Z,55.00
2019-03-23T02:57:19.246Z,56.20
2019-03-23T02:59:47.145Z,54.90
2019-03-23T03:02:15.071Z,53.03
2019-03-23T03:04:42.976Z,56.87
2019-03-23T03:07:10.935Z,55.30
2019-03-23T03:09:38.878Z,52.70
2019-03-23T03:12:06.861Z,52.20
2019-03-23T03:14:34.817Z,53.27
2019-03-23T03:17:02.805Z,54.73
2019-03-23T03:19:30.697Z,54.23
2019-03-23T03:21:58.651Z,54.10
2019-03-23T03:24:27.810Z,54.17
2019-03-23T03:26:55.823Z,54.67
2019-03-23T03:29:23.749Z,51.57
2019-03-23T03:31:51.662Z,53.03
2019-03-23T03:34:19.629Z,52.10
2019-03-23T03:36:47.584Z,51.30
2019-03-23T03:39:15.564Z,50.53
2019-03-23T03:41:43.495Z,52.37
2019-03-23T03:44:11.417Z,49.87
2019-03-23T03:46:39.351Z,52.43
2019-03-23T03:49:12.678Z,52.30
2019-03-23T03:51:39.135Z,49.30
2019-03-23T03:54:07.099Z,49.10
2019-03-23T03:56:35.041Z,50.30
2019-03-23T03:59:03.013Z,50.10
2019-03-23T04:01:30.953Z,47.80
2019-03-23T04:03:58.890Z,50.23
2019-03-23T04:06:26.823Z,48.37
2019-03-23T04:08:54.748Z,49.93
2019-03-23T04:11:22.645Z,48.57
2019-03-23T04:13:50.547Z,50.07
2019-03-23T04:16:18.449Z,50.90
2019-03-23T04:18:46.402Z,49.23
2019-03-23T04:21:14.273Z,49.60
2019-03-23T04:23:42.205Z,49.20
2019-03-23T04:26:10.192Z,50.37
2019-03-23T04:28:38.090Z,47.87
2019-03-23T04:31:05.985Z,49.03
2019-03-23T04:33:33.933Z,48.00
2019-03-23T04:36:01.813Z,47.37
2019-03-23T04:38:29.767Z,48.93
2019-03-23T04:40:57.652Z,48.43
2019-03-23T04:43:25.608Z,48.93
2019-03-23T04:45:53.544Z,51.77
2019-03-23T04:48:21.544Z,48.60
2019-03-23T04:50:49.457Z,50.33
2019-03-23T04:53:17.391Z,49.47
2019-03-23T04:55:45.276Z,48.93
2019-03-23T04:58:15.261Z,46.60
2019-03-23T05:00:43.264Z,47.90
2019-03-23T05:03:11.240Z,47.83
2019-03-23T05:05:39.197Z,49.87
2019-03-23T05:08:07.109Z,47.97
2019-03-23T05:10:35.432Z,46.87
2019-03-23T05:13:03.360Z,46.37
2019-03-23T05:15:31.281Z,48.03
2019-03-23T05:17:59.191Z,46.50
2019-03-23T05:20:28.069Z,48.40
2019-03-23T05:22:56.107Z,48.53
2019-03-23T05:25:24.707Z,46.97
2019-03-23T05:27:52.771Z,46.60
2019-03-23T05:30:20.663Z,49.70
2019-03-23T05:32:48.721Z,47.67
2019-03-23T05:35:16.788Z,48.30
2019-03-23T05:37:44.764Z,47.63
2019-03-23T05:40:12.711Z,46.40
2019-03-23T05:42:40.610Z,46.20
2019-03-23T05:45:08.524Z,45.13
2019-03-23T05:47:36.416Z,47.30
2019-03-23T05:50:04.378Z,46.93
2019-03-23T05:52:33.454Z,45.83
2019-03-23T05:55:01.324Z,46.63
2019-03-23T05:57:29.293Z,48.50
2019-03-23T05:59:57.209Z,49.63
2019-03-23T06:02:25.135Z,48.60
2019-03-23T06:04:53.089Z,51.87
2019-03-23T06:07:20.999Z,51.23
2019-03-23T06:09:48.992Z,53.53
2019-03-23T06:12:17.808Z,52.97
2019-03-23T06:14:45.846Z,53.73
2019-03-23T06:17:13.759Z,53.40
2019-03-23T06:19:41.682Z,53.57
2019-03-23T06:22:09.630Z,54.77
2019-03-23T06:24:37.614Z,56.57
2019-03-23T06:27:05.735Z,56.03
2019-03-23T06:29:33.672Z,52.50
2019-03-23T06:32:01.573Z,51.90
2019-03-23T06:34:29.532Z,54.03
2019-03-23T06:36:57.537Z,52.60
2019-03-23T06:39:25.512Z,52.47
2019-03-23T06:41:53.437Z,51.30
2019-03-23T06:44:21.800Z,53.20
2019-03-23T06:46:49.760Z,49.83
2019-03-23T06:49:17.689Z,52.53
2019-03-23T06:51:45.689Z,51.63
2019-03-23T06:54:13.634Z,51.70
2019-03-23T06:56:41.654Z,53.83
2019-03-23T06:59:09.524Z,51.53
2019-03-23T07:01:37.474Z,49.80
2019-03-23T07:04:05.384Z,53.70
2019-03-23T07:06:33.308Z,52.17
2019-03-23T07:09:01.224Z,52.27
2019-03-23T07:11:29.183Z,50.77
2019-03-23T07:13:57.075Z,49.20
2019-03-23T07:16:25.113Z,51.03
2019-03-23T07:18:52.988Z,51.17
2019-03-23T07:21:20.930Z,52.73
2019-03-23T07:23:48.872Z,50.37
2019-03-23T07:26:16.878Z,50.27
2019-03-23T07:28:44.871Z,51.17
2019-03-23T07:31:12.788Z,49.67
2019-03-23T07:33:40.697Z,50.80
2019-03-23T07:36:08.636Z,49.27
2019-03-23T07:38:36.619Z,50.87
2019-03-23T07:41:04.591Z,50.47
2019-03-23T07:43:32.545Z,52.27
2019-03-23T07:46:00.489Z,49.93
2019-03-23T07:48:28.603Z,50.60
2019-03-23T07:50:57.213Z,52.23
2019-03-23T07:53:25.161Z,49.93
2019-03-23T07:55:53.142Z,49.23
2019-03-23T07:58:21.055Z,49.43
2019-03-23T08:00:54.762Z,49.00
2019-03-23T08:03:22.631Z,50.30
2019-03-23T08:05:50.543Z,48.60
2019-03-23T08:08:18.496Z,48.57
2019-03-23T08:10:46.433Z,48.47
2019-03-23T08:13:14.393Z,49.43
2019-03-23T08:15:42.329Z,48.33
2019-03-23T08:18:10.343Z,47.97
2019-03-23T08:20:38.287Z,49.03
2019-03-23T08:23:06.279Z,46.77
2019-03-23T08:25:34.215Z,49.03
2019-03-23T08:28:02.198Z,48.47
2019-03-23T08:30:30.116Z,48.40
2019-03-23T08:32:59.051Z,46.97
2019-03-23T08:35:27.030Z,46.43
2019-03-23T08:37:54.998Z,48.60
2019-03-23T08:40:22.931Z,49.50
2019-03-23T08:42:50.965Z,48.20
2019-03-23T08:45:18.911Z,45.63
2019-03-23T08:47:46.881Z,47.03
2019-03-23T08:50:14.820Z,46.73
2019-03-23T08:52:42.765Z,48.30
2019-03-23T08:55:10.708Z,48.10
2019-03-23T08:57:38.759Z,46.77
2019-03-23T09:00:06.817Z,47.67
2019-03-23T09:02:34.729Z,46.83
2019-03-23T09:05:02.655Z,46.03
2019-03-23T09:07:30.673Z,47.07
2019-03-23T09:09:59.345Z,44.73
2019-03-23T09:12:27.665Z,48.27
2019-03-23T09:14:55.625Z,48.00
2019-03-23T09:17:23.554Z,47.57
2019-03-23T09:19:51.460Z,48.00
2019-03-23T09:22:19.454Z,46.97
2019-03-23T09:24:47.396Z,46.20
2019-03-23T09:27:15.345Z,46.67
2019-03-23T09:29:43.263Z,46.00
2019-03-23T09:32:11.265Z,46.67
2019-03-23T09:34:39.172Z,49.07
2019-03-23T09:37:07.118Z,47.33
2019-03-23T09:39:35.036Z,47.57
2019-03-23T09:42:02.972Z,45.77
2019-03-23T09:44:30.943Z,44.93
2019-03-23T09:47:00.148Z,43.83
2019-03-23T09:49:28.077Z,44.00
2019-03-23T09:51:56.003Z,42.30
2019-03-23T09:54:23.978Z,43.73
2019-03-23T09:56:51.878Z,43.57
2019-03-23T09:59:21.049Z,42.87
2019-03-23T10:01:48.965Z,42.77
2019-03-23T10:04:16.946Z,44.57
2019-03-23T10:06:44.825Z,43.13
2019-03-23T10:09:12.756Z,41.43
2019-03-23T10:11:40.703Z,41.73
2019-03-23T10:14:08.611Z,41.40
2019-03-23T10:16:36.533Z,39.20
2019-03-23T10:19:04.566Z,40.10
2019-03-23T10:21:32.489Z,40.63
2019-03-23T10:24:00.502Z,39.70
2019-03-23T10:26:28.443Z,40.80
2019-03-23T10:28:56.411Z,40.53
2019-03-23T10:31:24.306Z,40.47
2019-03-23T10:33:52.302Z,41.67
2019-03-23T10:36:20.299Z,39.57
2019-03-23T10:38:48.254Z,39.83
2019-03-23T10:41:16.185Z,40.50
2019-03-23T10:43:44.160Z,39.70
2019-03-23T10:46:12.042Z,37.90
2019-03-23T10:48:39.978Z,38.90
2019-03-23T10:51:17.854Z,39.80
2019-03-23T10:53:45.824Z,39.07
2019-03-23T10:56:13.724Z,39.87
2019-03-23T10:58:41.679Z,39.63
2019-03-23T11:01:09.612Z,39.67
2019-03-23T11:03:37.598Z,39.97
2019-03-23T11:06:05.574Z,39.80
2019-03-23T11:08:33.502Z,39.60
2019-03-23T11:11:01.516Z,41.97
2019-03-23T11:13:29.451Z,41.03
2019-03-23T11:15:57.393Z,41.17
2019-03-23T11:18:25.360Z,41.50
2019-03-23T11:20:53.331Z,40.37
2019-03-23T11:23:21.257Z,41.07
2019-03-23T11:25:49.197Z,42.40
2019-03-23T11:28:17.106Z,40.77
2019-03-23T11:30:45.001Z,40.87
2019-03-23T11:33:12.882Z,40.23
2019-03-23T11:35:40.825Z,40.10
2019-03-23T11:38:08.749Z,40.53
2019-03-23T11:40:37.001Z,40.40
2019-03-23T11:43:04.889Z,39.63
2019-03-23T11:45:32.824Z,38.57
2019-03-23T11:48:00.694Z,39.23
2019-03-23T11:50:28.626Z,38.40
2019-03-23T11:52:56.543Z,38.70
2019-03-23T11:55:24.534Z,39.23
2019-03-23T11:57:52.502Z,38.03
2019-03-23T12:00:20.452Z,39.33
2019-03-23T12:02:48.427Z,40.17
2019-03-23T12:05:16.362Z,39.00
2019-03-23T12:07:44.353Z,38.87
2019-03-23T12:10:12.769Z,38.07
2019-03-23T12:12:40.638Z,38.43
2019-03-23T12:15:08.999Z,38.03
2019-03-23T12:17:36.889Z,39.27
2019-03-23T12:20:05.346Z,38.07
2019-03-23T12:22:33.245Z,40.97
2019-03-23T12:25:01.179Z,38.67
2019-03-23T12:27:29.084Z,40.77
2019-03-23T12:30:06.722Z,39.93
2019-03-23T12:32:26.747Z,41.63
2019-03-23T12:34:54.684Z,40.17
2019-03-23T12:37:30.623Z,40.53
2019-03-23T12:39:58.436Z,40.30
2019-03-23T12:42:26.384Z,39.90
2019-03-23T12:44:54.323Z,40.17
2019-03-23T12:47:22.342Z,41.07
2019-03-23T12:49:50.300Z,42.50
2019-03-23T12:52:18.219Z,40.50
2019-03-23T12:54:46.143Z,43.07
2019-03-23T12:57:14.173Z,42.77
2019-03-23T12:59:42.050Z,42.20
2019-03-23T13:02:09.951Z,43.63
2019-03-23T13:04:37.901Z,40.43
2019-03-23T13:07:05.887Z,41.37
2019-03-23T13:09:33.778Z,42.70
2019-03-23T13:12:01.709Z,41.57
2019-03-23T13:14:29.621Z,41.40
2019-03-23T13:16:57.543Z,41.17
2019-03-23T13:19:25.502Z,40.93
2019-03-23T13:21:53.382Z,41.27
2019-03-23T13:24:22.685Z,40.17
2019-03-23T13:26:50.716Z,42.03
2019-03-23T13:29:18.706Z,43.67
2019-03-23T13:31:46.639Z,41.40
2019-03-23T13:34:14.522Z,41.73
2019-03-23T13:36:42.477Z,40.70
2019-03-23T13:39:10.401Z,40.03
2019-03-23T13:41:48.435Z,40.43
2019-03-23T13:44:16.410Z,41.00
2019-03-23T13:46:44.362Z,39.37
2019-03-23T13:49:12.773Z,40.03
2019-03-23T13:51:40.798Z,38.83
2019-03-23T13:54:09.104Z,40.17
2019-03-23T13:56:38.713Z,40.57
2019-03-23T13:59:06.647Z,38.23
2019-03-23T14:01:34.589Z,39.77
2019-03-23T14:04:02.550Z,39.93
2019-03-23T14:06:30.439Z,40.63
2019-03-23T14:08:58.406Z,38.70
2019-03-23T14:11:26.335Z,40.10
2019-03-23T14:13:54.307Z,40.13
2019-03-23T14:16:22.252Z,39.23
2019-03-23T14:18:50.185Z,39.13
2019-03-23T14:21:18.124Z,40.03
2019-03-23T14:23:49.082Z,37.80
2019-03-23T14:26:17.133Z,38.23
2019-03-23T14:28:45.027Z,37.63
2019-03-23T14:31:12.913Z,37.93
2019-03-23T14:33:40.836Z,38.07
2019-03-23T14:36:08.803Z,38.23
2019-03-23T14:38:36.734Z,37.43
2019-03-23T14:41:04.637Z,40.50
2019-03-23T14:43:32.605Z,38.40
2019-03-23T14:46:00.481Z,38.73
2019-03-23T14:48:28.426Z,37.57
2019-03-23T14:50:56.315Z,38.53
2019-03-23T14:53:24.279Z,37.77
2019-03-23T14:55:52.224Z,40.80
2019-03-23T14:58:20.131Z,41.73
2019-03-23T15:00:48.058Z,39.60
2019-03-23T15:03:15.965Z,39.97
2019-03-23T15:05:43.917Z,39.73
2019-03-23T15:08:11.903Z,40.47
2019-03-23T15:10:39.826Z,38.07
2019-03-23T15:13:07.853Z,39.80
2019-03-23T15:15:35.790Z,36.07
2019-03-23T15:18:03.771Z,38.03
2019-03-23T15:20:31.835Z,36.70
2019-03-23T15:22:59.801Z,37.90
2019-03-23T15:25:27.754Z,39.47
2019-03-23T15:27:56.975Z,37.57
2019-03-23T15:30:24.852Z,37.13
2019-03-23T15:32:52.788Z,39.40
2019-03-23T15:35:20.717Z,39.00
2019-03-23T15:37:48.759Z,38.13
2019-03-23T15:40:16.800Z,37.60
2019-03-23T15:42:44.692Z,36.00
2019-03-23T15:45:12.763Z,39.63
2019-03-23T15:47:40.700Z,39.07
2019-03-23T15:50:08.903Z,39.93
2019-03-23T15:52:36.815Z,38.73
2019-03-23T15:55:04.783Z,39.77
2019-03-23T15:57:32.694Z,38.87
2019-03-23T16:00:00.615Z,40.23
2019-03-23T16:02:28.513Z,40.27
2019-03-23T16:04:56.444Z,38.73
2019-03-23T16:07:29.475Z,39.20
2019-03-23T16:09:54.163Z,40.00
2019-03-23T16:12:22.047Z,39.90
2019-03-23T16:14:50.073Z,39.90
2019-03-23T16:17:17.985Z,37.53
2019-03-23T16:19:45.887Z,41.07
2019-03-23T16:22:13.828Z,41.60
2019-03-23T16:24:41.717Z,41.90
2019-03-23T16:27:09.708Z,39.43
2019-03-23T16:29:37.648Z,43.27
2019-03-23T16:32:05.573Z,44.47
2019-03-23T16:34:33.515Z,42.10
2019-03-23T16:37:01.468Z,42.30
2019-03-23T16:39:29.403Z,41.30
2019-03-23T16:41:57.296Z,41.60
2019-03-23T16:44:25.328Z,41.57
2019-03-23T16:46:53.316Z,39.60
2019-03-23T16:49:21.310Z,37.10
2019-03-23T16:51:49.297Z,36.77
2019-03-23T16:54:17.215Z,35.93
2019-03-23T16:56:45.167Z,35.97
2019-03-23T16:59:13.173Z,34.77
2019-03-23T17:01:41.067Z,38.40
2019-03-23T17:04:09.010Z,37.13
2019-03-23T17:06:45.983Z,36.83
2019-03-23T17:09:06.663Z,40.13
2019-03-23T17:11:34.639Z,38.50
2019-03-23T17:14:14.891Z,40.43
2019-03-23T17:16:42.814Z,37.43
2019-03-23T17:19:10.777Z,39.23
2019-03-23T17:21:38.810Z,37.60
2019-03-23T17:24:06.739Z,37.63
2019-03-23T17:26:34.663Z,36.10
2019-03-23T17:29:02.599Z,39.00
2019-03-23T17:31:30.542Z,36.87
2019-03-23T17:33:58.394Z,40.00
2019-03-23T17:36:26.370Z,40.53
2019-03-23T17:38:54.274Z,40.67
2019-03-23T17:41:22.225Z,41.10
2019-03-23T17:43:50.126Z,40.30
2019-03-23T17:46:18.098Z,41.83
2019-03-23T17:48:46.002Z,42.67
2019-03-23T17:51:13.924Z,43.00
2019-03-23T17:53:41.813Z,44.77
2019-03-23T17:56:09.725Z,45.63
2019-03-23T17:58:37.720Z,44.03
2019-03-23T18:01:05.642Z,43.23
2019-03-23T18:03:33.541Z,45.13
2019-03-23T18:06:01.457Z,46.07
2019-03-23T18:08:29.356Z,46.47
2019-03-23T18:10:57.315Z,46.47
2019-03-23T18:13:25.232Z,45.47
2019-03-23T18:15:53.159Z,45.70
2019-03-23T18:18:24.163Z,48.00
2019-03-23T18:20:52.064Z,42.63
2019-03-23T18:23:20.452Z,41.40
2019-03-23T18:25:48.391Z,42.53
2019-03-23T18:28:16.352Z,41.03
2019-03-23T18:30:44.514Z,36.10
2019-03-23T18:33:12.473Z,30.90
2019-03-23T18:35:40.476Z,27.80
2019-03-23T18:38:08.422Z,23.93
2019-03-23T18:40:36.338Z,23.17
2019-03-23T18:43:04.851Z,22.50
2019-03-23T18:45:32.771Z,21.40
2019-03-23T18:48:00.954Z,18.90
2019-03-23T18:50:29.119Z,19.37
2019-03-23T18:52:57.085Z,18.40
2019-03-23T18:55:25.037Z,18.20
2019-03-23T18:57:52.985Z,17.30
2019-03-23T19:00:33.751Z,16.97
2019-03-23T19:03:01.706Z,18.17
2019-03-23T19:05:29.927Z,17.37
2019-03-23T19:07:57.791Z,18.93
2019-03-23T19:10:25.763Z,18.53
2019-03-23T19:12:53.793Z,18.53
2019-03-23T19:15:21.708Z,17.00
2019-03-23T19:17:49.980Z,18.33
2019-03-23T19:20:17.864Z,18.13
2019-03-23T19:22:45.783Z,17.80
2019-03-23T19:25:18.212Z,17.50
2019-03-23T19:27:43.935Z,18.33
2019-03-23T19:30:12.062Z,19.47
2019-03-23T19:32:40.085Z,19.03
2019-03-23T19:35:08.033Z,21.47
2019-03-23T19:37:36.189Z,19.90
2019-03-23T19:40:04.222Z,20.07
2019-03-23T19:42:38.348Z,19.27
2019-03-23T19:45:07.051Z,19.87
2019-03-23T19:47:34.988Z,20.63
2019-03-23T19:50:03.635Z,22.27
2019-03-23T19:52:33.487Z,22.47
2019-03-23T19:55:01.322Z,20.43
2019-03-23T19:57:29.397Z,21.73
2019-03-23T19:59:57.302Z,22.83
2019-03-23T20:02:25.451Z,22.40
2019-03-23T20:04:53.410Z,21.90
2019-03-23T20:07:32.700Z,22.47
2019-03-23T20:09:53.960Z,20.23
2019-03-23T20:12:21.901Z,20.67
2019-03-23T20:14:49.829Z,21.90
2019-03-23T20:17:17.979Z,20.60
2019-03-23T20:19:46.008Z,20.40
2019-03-23T20:22:13.974Z,21.03
2019-03-23T20:24:41.926Z,20.40
2019-03-23T20:27:09.812Z,19.77
2019-03-23T20:29:37.744Z,17.40
2019-03-23T20:32:05.676Z,18.13
2019-03-23T20:34:33.621Z,16.37
2019-03-23T20:37:01.520Z,15.77
2019-03-23T20:39:29.456Z,14.77
2019-03-23T20:41:57.391Z,15.00
2019-03-23T20:44:25.394Z,16.27
2019-03-23T20:46:53.721Z,15.53
2019-03-23T20:49:22.077Z,14.47
2019-03-23T20:51:50.279Z,15.23
2019-03-23T20:54:18.476Z,14.90
2019-03-23T20:56:46.428Z,14.73
2019-03-23T20:59:14.382Z,13.57
2019-03-23T21:01:42.357Z,13.23
2019-03-23T21:04:10.332Z,12.90
2019-03-23T21:06:38.261Z,12.30
2019-03-23T21:09:06.569Z,12.30
2019-03-23T21:11:34.640Z,11.03
2019-03-23T21:14:02.616Z,11.23
2019-03-23T21:16:30.547Z,11.60
2019-03-23T21:18:58.492Z,10.67
2019-03-23T21:21:26.447Z,11.13
2019-03-23T21:23:54.325Z,10.07
2019-03-23T21:26:22.273Z,10.50
2019-03-23T21:28:50.182Z,10.23
2019-03-23T21:31:18.118Z,10.17
2019-03-23T21:33:45.992Z,9.30
2019-03-23T21:36:13.914Z,8.63
2019-03-23T21:38:42.269Z,8.30
2019-03-23T21:41:10.211Z,8.80
2019-03-23T21:43:38.139Z,9.60
2019-03-23T21:46:06.139Z,9.03
2019-03-23T21:48:34.046Z,8.60
2019-03-23T21:51:01.976Z,8.17
2019-03-23T21:53:29.922Z,8.40
2019-03-23T21:55:57.829Z,7.97
2019-03-23T21:58:25.734Z,7.60
2019-03-23T22:00:53.740Z,7.70
2019-03-23T22:03:21.674Z,7.33
2019-03-23T22:05:49.635Z,7.00
2019-03-23T22:08:17.551Z,6.60
2019-03-23T22:10:45.454Z,6.90
2019-03-23T22:13:13.424Z,7.13
2019-03-23T22:15:45.491Z,6.63
2019-03-23T22:18:13.421Z,6.53
2019-03-23T22:20:41.351Z,5.53
2019-03-23T22:23:09.282Z,6.03
2019-03-23T22:25:37.253Z,6.17
2019-03-23T22:28:05.207Z,5.97
2019-03-23T22:30:33.149Z,5.80
2019-03-23T22:33:01.250Z,6.00
2019-03-23T22:35:29.290Z,5.83
2019-03-23T22:37:57.300Z,5.83
2019-03-23T22:40:25.284Z,6.23
2019-03-23T22:42:53.272Z,5.43
2019-03-23T22:45:21.221Z,6.07
2019-03-23T22:47:49.163Z,5.70
2019-03-23T22:50:17.067Z,5.17
2019-03-23T22:52:44.978Z,6.07
2019-03-23T22:55:12.900Z,6.17
2019-03-23T22:57:40.838Z,5.13
2019-03-23T23:00:11.375Z,6.40
2019-03-23T23:02:39.354Z,6.33
2019-03-23T23:05:07.280Z,6.63
2019-03-23T23:07:35.227Z,6.30
2019-03-23T23:10:03.616Z,6.43
2019-03-23T23:12:31.571Z,7.10
2019-03-23T23:15:04.219Z,6.50
2019-03-23T23:17:29.268Z,6.90
2019-03-23T23:19:57.189Z,6.90
2019-03-23T23:22:25.177Z,6.57
2019-03-23T23:24:53.168Z,7.63
2019-03-23T23:27:21.126Z,6.80
2019-03-23T23:29:49.069Z,6.57
2019-03-23T23:32:17.073Z,6.17
2019-03-23T23:34:44.992Z,6.20
2019-03-23T23:37:12.931Z,6.50
2019-03-23T23:39:40.830Z,5.77
2019-03-23T23:42:08.778Z,6.67
2019-03-23T23:44:37.043Z,5.63
2019-03-23T23:47:05.099Z,6.63
2019-03-23T23:49:32.950Z,6.10
2019-03-23T23:52:00.883Z,5.97
2019-03-23T23:54:28.782Z,6.50
2019-03-23T23:56:56.775Z,5.90
2019-03-23T23:59:24.678Z,6.67
